Neillsville, WI

1:45 AM CDT on April 25, 2015 (GMT -0500)
central wisconsin | | Change Station
CLOSE
Current Station
Personal Weather Station
Location: Pittsville, WI
Elevation: 945 ft
Nearby Weather Stations

Elev 945 ft 44.35 °N, 90.34 °W | Updated 10 seconds ago

Overcast
Overcast
38.1 °F
Feels Like 34 °F
N
5.1
Wind Variable Wind from East
Gusts 7.4 mph

Today
High -- | Low -- °F
--% Chance of Precip.
Yesterday
High -- | Low -- °F
Precip. -- in
6:02 AM 7:59 PM
Waxing Crescent, 43% visible
Pressure 29.93 in
Visibility 10.0 miles
Clouds Few 1500 ft
Overcast 4800 ft
Windchill 34 °F
Dew Point 38 °F
Humidity 99%
Rainfall 0.00 in
Snow Depth Not available.
UV 0.0 out of 12
Pollen 8.50 out of 12
Air Quality Not available.
Flu Activity Local Activity
METAR KMFI 250554Z AUTO 10009KT 10SM -RA FEW015 OVC048 03/01 A2991 RMK AO2 SLP135 P0000 60000 T00330011 10100 20033 401501022 58006

More Conditions Fewer Conditions

Pressure 29.93 in
Visibility 10.0 miles
Clouds Few 1500 ft
Overcast 4800 ft
Windchill 34 °F
Dew Point 38 °F
Humidity 99%
Rainfall 0.00 in
Snow Depth Not available.
UV 0.0 out of 12
Pollen 8.50 out of 12
Air Quality Not available.
Flu Activity Local Activity
METAR KMFI 250554Z AUTO 10009KT 10SM -RA FEW015 OVC048 03/01 A2991 RMK AO2 SLP135 P0000 60000 T00330011 10100 20033 401501022 58006

More Conditions Fewer Conditions

10-Day Weather Forecast

Almanac

Astronomy

Apr. 25, 2015 Rise Set
Actual Time
Civil Twilight
Nautical Twilight
Astronomical Twilight
Moon
Length of Visible Light
Length of Day
Tomorrow will be .
, % of the Moon is Illuminated

Today's Extremes

State Highs State Lows

Community

WunderPhotos

Upload Photos

1,816,624 photos uploaded!

WunderBlogs® & News

Nearby

Air Quality

  Air Quality AQ Index Pollutant
Not available.

Snow Depth

Station Depth Elevation

Earthquake Activity

City Distance Mag. Time & Date
Minimum magnitude displayed is 2.5.

Coastal Water Temperatures

Place Temperature

Stations

Nearby Weather Stations

Station Location Temp. Windchill Dew Point Humidity Wind Precip. Elev Updated Type